Lake McCoy, Indiana
Current Conditions -  °F | °C
As of 4:53 PM on Monday 26 Jan 2015 (Local Time) from KGEZ Reporting Station
Overcast Overcast  
Wind Chill: 20°   Ceiling: 8500
Heat Index: 28°   Visibility: 10mi
Dew Point: 19°   Wind: 8mph
Humidity: 69%   Direction: 260°W
Pressure: 29.9"   Gusts: NA
Location:  39.3206°N, 85.4768°W
Report Text: KGEZ 262153Z AUTO 26007KT 10SM OVC085 M02/M07 A2990 RMK AO2 SLP136 T10221072
Loading
Personal Weather Stations






























Interactive Weather Map New forecast layout! Learn more

10-Day Weather Forecast

Advertisements
Track Severe Weather on mobile